sensor_id;sensor_type;location;lat;lon;timestamp;P1;durP1;ratioP1;P2;durP2;ratioP2
15990;SDS011;8100;50.994;4.538;2024-03-23T00:55:12;3.60;;;1.95;;
15990;SDS011;8100;50.994;4.538;2024-03-23T00:57:59;7.68;;;2.33;;
15990;SDS011;8100;50.994;4.538;2024-03-23T01:00:45;6.88;;;1.73;;
15990;SDS011;8100;50.994;4.538;2024-03-23T01:03:32;6.13;;;1.98;;
15990;SDS011;8100;50.994;4.538;2024-03-23T01:06:18;4.82;;;1.95;;
15990;SDS011;8100;50.994;4.538;2024-03-23T01:09:05;3.85;;;1.63;;
15990;SDS011;8100;50.994;4.538;2024-03-23T01:11:52;5.88;;;1.92;;
15990;SDS011;8100;50.994;4.538;2024-03-23T01:14:39;5.93;;;2.00;;
15990;SDS011;8100;50.994;4.538;2024-03-23T01:17:25;5.88;;;1.85;;
15990;SDS011;8100;50.994;4.538;2024-03-23T01:20:12;4.80;;;1.95;;
15990;SDS011;8100;50.994;4.538;2024-03-23T01:22:58;6.35;;;2.03;;
15990;SDS011;8100;50.994;4.538;2024-03-23T01:25:51;4.03;;;2.05;;
15990;SDS011;8100;50.994;4.538;2024-03-23T01:28:38;8.13;;;2.30;;
15990;SDS011;8100;50.994;4.538;2024-03-23T01:31:26;5.45;;;1.98;;
15990;SDS011;8100;50.994;4.538;2024-03-23T01:34:12;7.50;;;1.88;;
15990;SDS011;8100;50.994;4.538;2024-03-23T01:36:59;4.70;;;2.10;;
15990;SDS011;8100;50.994;4.538;2024-03-23T01:39:45;6.28;;;1.98;;
15990;SDS011;8100;50.994;4.538;2024-03-23T01:42:32;3.83;;;1.70;;
15990;SDS011;8100;50.994;4.538;2024-03-23T01:45:19;6.30;;;1.98;;
15990;SDS011;8100;50.994;4.538;2024-03-23T01:48:07;4.65;;;2.10;;
15990;SDS011;8100;50.994;4.538;2024-03-23T01:50:54;4.07;;;2.15;;
15990;SDS011;8100;50.994;4.538;2024-03-23T01:53:41;3.70;;;1.40;;
15990;SDS011;8100;50.994;4.538;2024-03-23T01:56:27;4.78;;;2.00;;
15990;SDS011;8100;50.994;4.538;2024-03-23T01:59:15;5.22;;;1.70;;
15990;SDS011;8100;50.994;4.538;2024-03-23T02:02:02;6.47;;;1.90;;
15990;SDS011;8100;50.994;4.538;2024-03-23T02:04:50;7.47;;;2.10;;
15990;SDS011;8100;50.994;4.538;2024-03-23T02:07:36;4.20;;;2.00;;
15990;SDS011;8100;50.994;4.538;2024-03-23T02:10:24;4.32;;;1.65;;
15990;SDS011;8100;50.994;4.538;2024-03-23T02:13:10;6.25;;;2.10;;
15990;SDS011;8100;50.994;4.538;2024-03-23T02:15:56;3.35;;;2.00;;
15990;SDS011;8100;50.994;4.538;2024-03-23T02:18:44;5.55;;;2.10;;
15990;SDS011;8100;50.994;4.538;2024-03-23T02:21:31;5.75;;;1.85;;
15990;SDS011;8100;50.994;4.538;2024-03-23T02:24:19;5.72;;;1.63;;
15990;SDS011;8100;50.994;4.538;2024-03-23T02:27:06;7.47;;;2.13;;
15990;SDS011;8100;50.994;4.538;2024-03-23T02:29:52;3.95;;;1.80;;
15990;SDS011;8100;50.994;4.538;2024-03-23T02:32:39;6.53;;;2.53;;
15990;SDS011;8100;50.994;4.538;2024-03-23T02:35:24;5.57;;;2.40;;
15990;SDS011;8100;50.994;4.538;2024-03-23T02:38:11;6.72;;;2.50;;
15990;SDS011;8100;50.994;4.538;2024-03-23T02:41:02;5.03;;;2.35;;
15990;SDS011;8100;50.994;4.538;2024-03-23T02:43:49;4.97;;;2.35;;
15990;SDS011;8100;50.994;4.538;2024-03-23T02:46:35;4.65;;;2.80;;
15990;SDS011;8100;50.994;4.538;2024-03-23T02:49:23;8.43;;;2.60;;
15990;SDS011;8100;50.994;4.538;2024-03-23T02:52:08;7.00;;;2.55;;
15990;SDS011;8100;50.994;4.538;2024-03-23T02:54:56;7.28;;;2.60;;
15990;SDS011;8100;50.994;4.538;2024-03-23T02:57:43;6.70;;;2.55;;
15990;SDS011;8100;50.994;4.538;2024-03-23T03:00:30;5.72;;;2.65;;
15990;SDS011;8100;50.994;4.538;2024-03-23T03:03:16;5.22;;;2.60;;
15990;SDS011;8100;50.994;4.538;2024-03-23T03:06:03;8.90;;;2.85;;
15990;SDS011;8100;50.994;4.538;2024-03-23T03:08:49;10.02;;;2.58;;
15990;SDS011;8100;50.994;4.538;2024-03-23T03:11:36;5.68;;;2.75;;
15990;SDS011;8100;50.994;4.538;2024-03-23T03:14:24;7.18;;;2.72;;
15990;SDS011;8100;50.994;4.538;2024-03-23T03:17:11;9.57;;;2.80;;
15990;SDS011;8100;50.994;4.538;2024-03-23T03:19:57;9.02;;;3.30;;
15990;SDS011;8100;50.994;4.538;2024-03-23T03:22:45;6.45;;;2.53;;
15990;SDS011;8100;50.994;4.538;2024-03-23T03:25:31;8.80;;;2.70;;
15990;SDS011;8100;50.994;4.538;2024-03-23T03:28:17;7.05;;;2.83;;
15990;SDS011;8100;50.994;4.538;2024-03-23T03:31:05;4.97;;;2.67;;
15990;SDS011;8100;50.994;4.538;2024-03-23T03:33:53;5.50;;;2.35;;
15990;SDS011;8100;50.994;4.538;2024-03-23T03:36:39;7.43;;;3.00;;
15990;SDS011;8100;50.994;4.538;2024-03-23T03:39:26;6.38;;;2.75;;
15990;SDS011;8100;50.994;4.538;2024-03-23T03:42:12;5.70;;;2.38;;
15990;SDS011;8100;50.994;4.538;2024-03-23T03:44:59;9.15;;;2.70;;
15990;SDS011;8100;50.994;4.538;2024-03-23T03:47:46;10.27;;;2.65;;
15990;SDS011;8100;50.994;4.538;2024-03-23T03:50:33;5.57;;;2.40;;
15990;SDS011;8100;50.994;4.538;2024-03-23T03:53:20;9.43;;;3.00;;
15990;SDS011;8100;50.994;4.538;2024-03-23T03:56:07;12.82;;;2.75;;
15990;SDS011;8100;50.994;4.538;2024-03-23T03:58:53;8.85;;;2.83;;
15990;SDS011;8100;50.994;4.538;2024-03-23T04:01:40;8.35;;;2.50;;
15990;SDS011;8100;50.994;4.538;2024-03-23T04:04:27;11.50;;;3.33;;
15990;SDS011;8100;50.994;4.538;2024-03-23T04:07:14;5.15;;;2.53;;
15990;SDS011;8100;50.994;4.538;2024-03-23T04:10:02;6.35;;;2.65;;
15990;SDS011;8100;50.994;4.538;2024-03-23T04:12:52;8.35;;;2.97;;
15990;SDS011;8100;50.994;4.538;2024-03-23T04:15:39;7.15;;;2.38;;
15990;SDS011;8100;50.994;4.538;2024-03-23T04:18:26;10.63;;;3.30;;
15990;SDS011;8100;50.994;4.538;2024-03-23T04:21:13;8.23;;;2.85;;
15990;SDS011;8100;50.994;4.538;2024-03-23T04:24:00;8.02;;;3.05;;
15990;SDS011;8100;50.994;4.538;2024-03-23T04:26:46;11.52;;;3.22;;
15990;SDS011;8100;50.994;4.538;2024-03-23T04:29:33;8.90;;;2.97;;
15990;SDS011;8100;50.994;4.538;2024-03-23T04:32:19;6.00;;;2.78;;
15990;SDS011;8100;50.994;4.538;2024-03-23T04:35:06;8.68;;;2.80;;
15990;SDS011;8100;50.994;4.538;2024-03-23T04:37:56;7.20;;;2.75;;
15990;SDS011;8100;50.994;4.538;2024-03-23T04:40:43;5.88;;;2.70;;
15990;SDS011;8100;50.994;4.538;2024-03-23T04:43:30;8.00;;;3.08;;
15990;SDS011;8100;50.994;4.538;2024-03-23T04:46:17;6.60;;;2.78;;
15990;SDS011;8100;50.994;4.538;2024-03-23T04:49:06;8.60;;;2.53;;
15990;SDS011;8100;50.994;4.538;2024-03-23T04:51:53;9.02;;;2.72;;
15990;SDS011;8100;50.994;4.538;2024-03-23T04:54:41;12.55;;;3.22;;
15990;SDS011;8100;50.994;4.538;2024-03-23T04:57:28;8.32;;;2.70;;
15990;SDS011;8100;50.994;4.538;2024-03-23T05:00:16;6.15;;;2.60;;
15990;SDS011;8100;50.994;4.538;2024-03-23T05:03:02;6.32;;;2.35;;
15990;SDS011;8100;50.994;4.538;2024-03-23T05:05:49;5.80;;;2.13;;
15990;SDS011;8100;50.994;4.538;2024-03-23T05:08:35;7.53;;;2.40;;
15990;SDS011;8100;50.994;4.538;2024-03-23T05:11:24;9.57;;;2.50;;
15990;SDS011;8100;50.994;4.538;2024-03-23T05:14:12;6.00;;;2.15;;
15990;SDS011;8100;50.994;4.538;2024-03-23T05:16:59;8.73;;;2.28;;
15990;SDS011;8100;50.994;4.538;2024-03-23T05:19:45;6.43;;;2.50;;
15990;SDS011;8100;50.994;4.538;2024-03-23T05:22:32;9.75;;;2.75;;
15990;SDS011;8100;50.994;4.538;2024-03-23T05:25:18;7.85;;;2.10;;
15990;SDS011;8100;50.994;4.538;2024-03-23T05:28:07;7.28;;;2.33;;
15990;SDS011;8100;50.994;4.538;2024-03-23T05:30:53;5.57;;;2.47;;
15990;SDS011;8100;50.994;4.538;2024-03-23T05:33:40;9.93;;;2.33;;
15990;SDS011;8100;50.994;4.538;2024-03-23T05:36:26;6.53;;;2.10;;
15990;SDS011;8100;50.994;4.538;2024-03-23T05:39:13;5.93;;;2.10;;
15990;SDS011;8100;50.994;4.538;2024-03-23T05:42:01;10.43;;;2.95;;
15990;SDS011;8100;50.994;4.538;2024-03-23T05:44:49;11.93;;;2.13;;
15990;SDS011;8100;50.994;4.538;2024-03-23T05:47:35;9.38;;;2.53;;
15990;SDS011;8100;50.994;4.538;2024-03-23T05:50:23;8.95;;;1.85;;
15990;SDS011;8100;50.994;4.538;2024-03-23T05:53:09;5.25;;;1.85;;
15990;SDS011;8100;50.994;4.538;2024-03-23T05:56:00;7.47;;;1.90;;
15990;SDS011;8100;50.994;4.538;2024-03-23T05:58:48;3.65;;;1.58;;
15990;SDS011;8100;50.994;4.538;2024-03-23T06:01:37;6.03;;;1.90;;
15990;SDS011;8100;50.994;4.538;2024-03-23T06:04:24;6.93;;;1.63;;
15990;SDS011;8100;50.994;4.538;2024-03-23T06:07:12;7.90;;;2.00;;
15990;SDS011;8100;50.994;4.538;2024-03-23T06:09:59;11.93;;;2.00;;
15990;SDS011;8100;50.994;4.538;2024-03-23T06:12:46;8.88;;;1.90;;
15990;SDS011;8100;50.994;4.538;2024-03-23T06:15:32;10.30;;;2.13;;
15990;SDS011;8100;50.994;4.538;2024-03-23T06:18:24;10.93;;;2.03;;
15990;SDS011;8100;50.994;4.538;2024-03-23T06:21:13;8.70;;;2.13;;
15990;SDS011;8100;50.994;4.538;2024-03-23T06:24:00;8.13;;;2.00;;
15990;SDS011;8100;50.994;4.538;2024-03-23T06:26:47;4.75;;;1.70;;
15990;SDS011;8100;50.994;4.538;2024-03-23T06:29:33;8.18;;;2.03;;
15990;SDS011;8100;50.994;4.538;2024-03-23T06:32:22;9.32;;;1.70;;
15990;SDS011;8100;50.994;4.538;2024-03-23T06:35:09;6.80;;;1.80;;
15990;SDS011;8100;50.994;4.538;2024-03-23T06:37:56;3.05;;;1.40;;
15990;SDS011;8100;50.994;4.538;2024-03-23T06:40:43;8.85;;;1.95;;
15990;SDS011;8100;50.994;4.538;2024-03-23T06:43:32;5.50;;;1.98;;
15990;SDS011;8100;50.994;4.538;2024-03-23T06:46:19;5.63;;;1.27;;
15990;SDS011;8100;50.994;4.538;2024-03-23T06:49:05;7.50;;;1.73;;
15990;SDS011;8100;50.994;4.538;2024-03-23T06:51:54;5.05;;;1.50;;
15990;SDS011;8100;50.994;4.538;2024-03-23T06:54:40;7.75;;;1.98;;
15990;SDS011;8100;50.994;4.538;2024-03-23T06:57:27;5.65;;;1.40;;
15990;SDS011;8100;50.994;4.538;2024-03-23T07:00:13;5.72;;;1.33;;
15990;SDS011;8100;50.994;4.538;2024-03-23T07:03:01;6.15;;;1.25;;
15990;SDS011;8100;50.994;4.538;2024-03-23T07:05:48;6.80;;;1.52;;
15990;SDS011;8100;50.994;4.538;2024-03-23T07:08:37;6.90;;;1.58;;
15990;SDS011;8100;50.994;4.538;2024-03-23T07:11:23;6.07;;;1.20;;
15990;SDS011;8100;50.994;4.538;2024-03-23T07:14:11;4.13;;;1.20;;
15990;SDS011;8100;50.994;4.538;2024-03-23T07:16:57;4.70;;;1.13;;
15990;SDS011;8100;50.994;4.538;2024-03-23T07:19:44;4.35;;;1.30;;
15990;SDS011;8100;50.994;4.538;2024-03-23T07:22:31;6.80;;;1.50;;
15990;SDS011;8100;50.994;4.538;2024-03-23T07:25:19;6.47;;;1.30;;
15990;SDS011;8100;50.994;4.538;2024-03-23T07:28:06;3.20;;;1.10;;
15990;SDS011;8100;50.994;4.538;2024-03-23T07:31:03;5.97;;;1.17;;
15990;SDS011;8100;50.994;4.538;2024-03-23T07:33:50;6.38;;;1.10;;
15990;SDS011;8100;50.994;4.538;2024-03-23T07:36:36;7.35;;;1.38;;
15990;SDS011;8100;50.994;4.538;2024-03-23T07:39:22;5.05;;;1.45;;
15990;SDS011;8100;50.994;4.538;2024-03-23T07:42:11;6.20;;;1.13;;
15990;SDS011;8100;50.994;4.538;2024-03-23T07:44:57;2.42;;;0.80;;
15990;SDS011;8100;50.994;4.538;2024-03-23T07:47:44;2.83;;;0.77;;
15990;SDS011;8100;50.994;4.538;2024-03-23T07:50:30;4.88;;;0.85;;
15990;SDS011;8100;50.994;4.538;2024-03-23T07:53:17;6.30;;;1.13;;
15990;SDS011;8100;50.994;4.538;2024-03-23T07:56:04;4.32;;;1.00;;
15990;SDS011;8100;50.994;4.538;2024-03-23T07:58:53;3.92;;;1.17;;
15990;SDS011;8100;50.994;4.538;2024-03-23T08:01:39;5.13;;;1.33;;
15990;SDS011;8100;50.994;4.538;2024-03-23T08:04:26;4.38;;;1.15;;
15990;SDS011;8100;50.994;4.538;2024-03-23T08:07:13;7.65;;;1.42;;
15990;SDS011;8100;50.994;4.538;2024-03-23T08:10:00;2.42;;;1.10;;
15990;SDS011;8100;50.994;4.538;2024-03-23T08:12:48;4.72;;;1.30;;
15990;SDS011;8100;50.994;4.538;2024-03-23T08:15:36;3.35;;;1.10;;
15990;SDS011;8100;50.994;4.538;2024-03-23T08:18:23;3.20;;;1.50;;
15990;SDS011;8100;50.994;4.538;2024-03-23T08:21:10;5.45;;;1.30;;
15990;SDS011;8100;50.994;4.538;2024-03-23T08:23:55;8.07;;;1.50;;
15990;SDS011;8100;50.994;4.538;2024-03-23T08:26:42;7.35;;;1.33;;
15990;SDS011;8100;50.994;4.538;2024-03-23T08:29:29;2.65;;;1.20;;
15990;SDS011;8100;50.994;4.538;2024-03-23T08:32:17;6.97;;;1.27;;
15990;SDS011;8100;50.994;4.538;2024-03-23T08:35:04;4.10;;;1.35;;
15990;SDS011;8100;50.994;4.538;2024-03-23T08:37:51;5.60;;;1.20;;
15990;SDS011;8100;50.994;4.538;2024-03-23T08:40:38;4.03;;;1.25;;
15990;SDS011;8100;50.994;4.538;2024-03-23T08:43:24;3.47;;;1.10;;
15990;SDS011;8100;50.994;4.538;2024-03-23T08:46:13;4.50;;;1.15;;
15990;SDS011;8100;50.994;4.538;2024-03-23T08:49:01;4.25;;;0.70;;
15990;SDS011;8100;50.994;4.538;2024-03-23T08:51:48;8.73;;;1.15;;
15990;SDS011;8100;50.994;4.538;2024-03-23T08:54:35;2.63;;;0.93;;
15990;SDS011;8100;50.994;4.538;2024-03-23T08:57:21;2.83;;;0.65;;
15990;SDS011;8100;50.994;4.538;2024-03-23T09:00:09;3.05;;;0.75;;
15990;SDS011;8100;50.994;4.538;2024-03-23T09:02:56;3.35;;;1.00;;
15990;SDS011;8100;50.994;4.538;2024-03-23T09:05:45;7.20;;;1.05;;
15990;SDS011;8100;50.994;4.538;2024-03-23T09:08:32;3.40;;;1.08;;
15990;SDS011;8100;50.994;4.538;2024-03-23T09:11:18;5.30;;;1.13;;
15990;SDS011;8100;50.994;4.538;2024-03-23T09:14:05;8.30;;;1.00;;
15990;SDS011;8100;50.994;4.538;2024-03-23T09:16:51;3.80;;;0.90;;
15990;SDS011;8100;50.994;4.538;2024-03-23T09:19:38;2.88;;;1.00;;
15990;SDS011;8100;50.994;4.538;2024-03-23T09:22:26;2.15;;;0.75;;
15990;SDS011;8100;50.994;4.538;2024-03-23T09:25:13;3.95;;;1.08;;
15990;SDS011;8100;50.994;4.538;2024-03-23T09:27:59;5.53;;;0.90;;
15990;SDS011;8100;50.994;4.538;2024-03-23T09:30:46;4.25;;;0.90;;
15990;SDS011;8100;50.994;4.538;2024-03-23T09:33:32;4.85;;;0.90;;
15990;SDS011;8100;50.994;4.538;2024-03-23T09:36:20;3.40;;;0.80;;
15990;SDS011;8100;50.994;4.538;2024-03-23T09:39:08;4.43;;;1.10;;
15990;SDS011;8100;50.994;4.538;2024-03-23T09:41:56;2.58;;;1.15;;
15990;SDS011;8100;50.994;4.538;2024-03-23T09:44:42;2.88;;;0.80;;
15990;SDS011;8100;50.994;4.538;2024-03-23T09:47:31;1.45;;;0.40;;
15990;SDS011;8100;50.994;4.538;2024-03-23T09:50:18;1.13;;;0.30;;
15990;SDS011;8100;50.994;4.538;2024-03-23T09:53:05;0.88;;;0.47;;
15990;SDS011;8100;50.994;4.538;2024-03-23T09:55:54;2.00;;;0.40;;
15990;SDS011;8100;50.994;4.538;2024-03-23T09:58:41;3.88;;;0.52;;
15990;SDS011;8100;50.994;4.538;2024-03-23T10:01:27;1.85;;;0.63;;
15990;SDS011;8100;50.994;4.538;2024-03-23T10:07:22;1.55;;;0.65;;
15990;SDS011;8100;50.994;4.538;2024-03-23T10:10:10;1.02;;;0.60;;
15990;SDS011;8100;50.994;4.538;2024-03-23T10:12:58;3.28;;;1.13;;
15990;SDS011;8100;50.994;4.538;2024-03-23T10:15:45;6.10;;;1.10;;
15990;SDS011;8100;50.994;4.538;2024-03-23T10:18:31;4.32;;;1.20;;
15990;SDS011;8100;50.994;4.538;2024-03-23T10:21:23;2.90;;;0.85;;
15990;SDS011;8100;50.994;4.538;2024-03-23T10:24:09;3.83;;;1.10;;
15990;SDS011;8100;50.994;4.538;2024-03-23T10:26:58;2.47;;;1.10;;
15990;SDS011;8100;50.994;4.538;2024-03-23T10:29:46;2.33;;;1.10;;
15990;SDS011;8100;50.994;4.538;2024-03-23T10:32:33;1.70;;;1.20;;
15990;SDS011;8100;50.994;4.538;2024-03-23T10:35:20;2.55;;;1.08;;
15990;SDS011;8100;50.994;4.538;2024-03-23T10:38:07;3.20;;;1.20;;
15990;SDS011;8100;50.994;4.538;2024-03-23T10:40:54;3.63;;;1.00;;
15990;SDS011;8100;50.994;4.538;2024-03-23T10:43:42;2.63;;;1.15;;
15990;SDS011;8100;50.994;4.538;2024-03-23T10:46:32;1.20;;;1.00;;
15990;SDS011;8100;50.994;4.538;2024-03-23T10:49:18;2.85;;;0.90;;
15990;SDS011;8100;50.994;4.538;2024-03-23T10:52:06;1.65;;;0.95;;
15990;SDS011;8100;50.994;4.538;2024-03-23T10:54:52;1.55;;;0.70;;
15990;SDS011;8100;50.994;4.538;2024-03-23T10:57:40;1.13;;;0.60;;
15990;SDS011;8100;50.994;4.538;2024-03-23T11:00:30;5.10;;;0.95;;
15990;SDS011;8100;50.994;4.538;2024-03-23T11:03:31;2.20;;;1.10;;
15990;SDS011;8100;50.994;4.538;2024-03-23T11:06:33;3.97;;;1.30;;
15990;SDS011;8100;50.994;4.538;2024-03-23T11:12:25;4.13;;;0.95;;
15990;SDS011;8100;50.994;4.538;2024-03-23T11:15:15;2.97;;;1.20;;
15990;SDS011;8100;50.994;4.538;2024-03-23T11:18:02;1.63;;;0.90;;
15990;SDS011;8100;50.994;4.538;2024-03-23T11:20:51;1.65;;;1.13;;
15990;SDS011;8100;50.994;4.538;2024-03-23T11:23:37;2.20;;;1.17;;
15990;SDS011;8100;50.994;4.538;2024-03-23T11:26:25;2.40;;;1.50;;
15990;SDS011;8100;50.994;4.538;2024-03-23T11:29:11;3.83;;;1.77;;
15990;SDS011;8100;50.994;4.538;2024-03-23T11:31:59;3.28;;;2.20;;
15990;SDS011;8100;50.994;4.538;2024-03-23T11:34:47;3.92;;;1.20;;
15990;SDS011;8100;50.994;4.538;2024-03-23T11:37:35;2.75;;;1.33;;
15990;SDS011;8100;50.994;4.538;2024-03-23T11:40:24;2.20;;;1.42;;
15990;SDS011;8100;50.994;4.538;2024-03-23T11:43:12;2.72;;;1.45;;
15990;SDS011;8100;50.994;4.538;2024-03-23T11:46:00;3.30;;;1.45;;
15990;SDS011;8100;50.994;4.538;2024-03-23T11:48:49;2.70;;;1.40;;
15990;SDS011;8100;50.994;4.538;2024-03-23T11:51:36;4.93;;;1.58;;
15990;SDS011;8100;50.994;4.538;2024-03-23T11:54:24;2.60;;;0.90;;
15990;SDS011;8100;50.994;4.538;2024-03-23T11:57:12;2.83;;;0.80;;
15990;SDS011;8100;50.994;4.538;2024-03-23T11:59:58;1.63;;;1.00;;
15990;SDS011;8100;50.994;4.538;2024-03-23T12:02:45;2.20;;;0.70;;
15990;SDS011;8100;50.994;4.538;2024-03-23T12:05:31;2.28;;;0.77;;
15990;SDS011;8100;50.994;4.538;2024-03-23T12:08:19;1.58;;;0.75;;
15990;SDS011;8100;50.994;4.538;2024-03-23T12:11:08;1.92;;;0.90;;
15990;SDS011;8100;50.994;4.538;2024-03-23T12:13:59;1.88;;;0.80;;
15990;SDS011;8100;50.994;4.538;2024-03-23T12:16:45;5.15;;;0.80;;
15990;SDS011;8100;50.994;4.538;2024-03-23T12:19:32;3.70;;;0.70;;
15990;SDS011;8100;50.994;4.538;2024-03-23T12:22:20;1.20;;;0.57;;
15990;SDS011;8100;50.994;4.538;2024-03-23T12:25:07;3.38;;;0.77;;
15990;SDS011;8100;50.994;4.538;2024-03-23T12:27:54;1.52;;;0.70;;
15990;SDS011;8100;50.994;4.538;2024-03-23T12:30:45;5.18;;;0.77;;
15990;SDS011;8100;50.994;4.538;2024-03-23T12:33:32;4.13;;;0.82;;
15990;SDS011;8100;50.994;4.538;2024-03-23T12:36:18;5.78;;;1.38;;
15990;SDS011;8100;50.994;4.538;2024-03-23T12:39:04;1.30;;;0.35;;
15990;SDS011;8100;50.994;4.538;2024-03-23T12:41:51;4.47;;;0.40;;
15990;SDS011;8100;50.994;4.538;2024-03-23T12:44:39;1.45;;;0.20;;
15990;SDS011;8100;50.994;4.538;2024-03-23T12:47:26;2.67;;;0.40;;
15990;SDS011;8100;50.994;4.538;2024-03-23T12:50:12;1.98;;;0.50;;
15990;SDS011;8100;50.994;4.538;2024-03-23T12:52:59;4.25;;;0.77;;
15990;SDS011;8100;50.994;4.538;2024-03-23T12:55:46;1.15;;;0.50;;
15990;SDS011;8100;50.994;4.538;2024-03-23T12:58:33;1.55;;;0.65;;
15990;SDS011;8100;50.994;4.538;2024-03-23T13:01:20;2.83;;;0.50;;
15990;SDS011;8100;50.994;4.538;2024-03-23T13:04:07;2.05;;;0.50;;
15990;SDS011;8100;50.994;4.538;2024-03-23T13:06:54;2.00;;;0.77;;
15990;SDS011;8100;50.994;4.538;2024-03-23T13:09:41;2.67;;;0.60;;
15990;SDS011;8100;50.994;4.538;2024-03-23T13:12:27;2.22;;;0.60;;
15990;SDS011;8100;50.994;4.538;2024-03-23T13:15:14;2.53;;;0.60;;
15990;SDS011;8100;50.994;4.538;2024-03-23T13:18:03;2.03;;;0.70;;
15990;SDS011;8100;50.994;4.538;2024-03-23T13:20:50;2.28;;;0.40;;
15990;SDS011;8100;50.994;4.538;2024-03-23T13:23:36;1.45;;;0.43;;
15990;SDS011;8100;50.994;4.538;2024-03-23T13:26:26;3.03;;;0.57;;
15990;SDS011;8100;50.994;4.538;2024-03-23T13:29:13;1.42;;;0.60;;
15990;SDS011;8100;50.994;4.538;2024-03-23T13:31:59;3.15;;;0.60;;
15990;SDS011;8100;50.994;4.538;2024-03-23T13:34:47;0.63;;;0.40;;
15990;SDS011;8100;50.994;4.538;2024-03-23T13:37:35;1.23;;;0.50;;
15990;SDS011;8100;50.994;4.538;2024-03-23T13:40:22;1.40;;;0.43;;
15990;SDS011;8100;50.994;4.538;2024-03-23T13:43:08;1.02;;;0.50;;
15990;SDS011;8100;50.994;4.538;2024-03-23T13:45:56;1.98;;;0.50;;
15990;SDS011;8100;50.994;4.538;2024-03-23T13:48:43;2.25;;;0.60;;
15990;SDS011;8100;50.994;4.538;2024-03-23T13:51:31;2.60;;;0.68;;
15990;SDS011;8100;50.994;4.538;2024-03-23T13:54:18;1.80;;;0.63;;
15990;SDS011;8100;50.994;4.538;2024-03-23T13:57:05;1.20;;;0.63;;
15990;SDS011;8100;50.994;4.538;2024-03-23T13:59:51;1.30;;;0.60;;
15990;SDS011;8100;50.994;4.538;2024-03-23T14:02:38;1.25;;;0.65;;
15990;SDS011;8100;50.994;4.538;2024-03-23T14:05:24;0.98;;;0.47;;
15990;SDS011;8100;50.994;4.538;2024-03-23T14:08:12;2.17;;;0.80;;
15990;SDS011;8100;50.994;4.538;2024-03-23T14:10:58;1.63;;;0.90;;
15990;SDS011;8100;50.994;4.538;2024-03-23T14:13:45;3.10;;;0.93;;
15990;SDS011;8100;50.994;4.538;2024-03-23T14:16:31;2.63;;;0.93;;
15990;SDS011;8100;50.994;4.538;2024-03-23T14:19:18;1.90;;;0.88;;
15990;SDS011;8100;50.994;4.538;2024-03-23T14:22:05;1.90;;;0.80;;
15990;SDS011;8100;50.994;4.538;2024-03-23T14:24:53;2.40;;;0.90;;
15990;SDS011;8100;50.994;4.538;2024-03-23T14:27:39;4.30;;;0.80;;
15990;SDS011;8100;50.994;4.538;2024-03-23T14:30:26;1.50;;;0.80;;
15990;SDS011;8100;50.994;4.538;2024-03-23T14:33:12;2.90;;;0.80;;
15990;SDS011;8100;50.994;4.538;2024-03-23T14:35:59;2.75;;;0.90;;
15990;SDS011;8100;50.994;4.538;2024-03-23T14:38:46;3.00;;;1.00;;
15990;SDS011;8100;50.994;4.538;2024-03-23T14:41:35;2.78;;;1.10;;
15990;SDS011;8100;50.994;4.538;2024-03-23T14:44:21;2.13;;;1.20;;
15990;SDS011;8100;50.994;4.538;2024-03-23T14:47:08;3.33;;;1.00;;
15990;SDS011;8100;50.994;4.538;2024-03-23T14:49:54;3.15;;;1.13;;
15990;SDS011;8100;50.994;4.538;2024-03-23T14:52:41;2.60;;;0.82;;
15990;SDS011;8100;50.994;4.538;2024-03-23T14:55:29;4.47;;;1.10;;
15990;SDS011;8100;50.994;4.538;2024-03-23T14:58:17;2.28;;;0.80;;
15990;SDS011;8100;50.994;4.538;2024-03-23T15:01:03;2.40;;;0.90;;
15990;SDS011;8100;50.994;4.538;2024-03-23T15:03:54;2.45;;;0.73;;
15990;SDS011;8100;50.994;4.538;2024-03-23T15:06:40;4.85;;;1.40;;
15990;SDS011;8100;50.994;4.538;2024-03-23T15:09:27;1.08;;;0.80;;
15990;SDS011;8100;50.994;4.538;2024-03-23T15:12:13;1.55;;;0.90;;
15990;SDS011;8100;50.994;4.538;2024-03-23T15:15:02;1.92;;;0.82;;
15990;SDS011;8100;50.994;4.538;2024-03-23T15:17:48;4.07;;;0.80;;
15990;SDS011;8100;50.994;4.538;2024-03-23T15:20:35;2.10;;;0.90;;
15990;SDS011;8100;50.994;4.538;2024-03-23T15:23:21;1.60;;;0.73;;
15990;SDS011;8100;50.994;4.538;2024-03-23T15:26:09;2.83;;;0.60;;
15990;SDS011;8100;50.994;4.538;2024-03-23T15:28:55;1.05;;;0.50;;
15990;SDS011;8100;50.994;4.538;2024-03-23T15:31:58;2.47;;;0.63;;
15990;SDS011;8100;50.994;4.538;2024-03-23T15:34:44;3.22;;;0.90;;
15990;SDS011;8100;50.994;4.538;2024-03-23T15:37:31;3.88;;;1.23;;
15990;SDS011;8100;50.994;4.538;2024-03-23T15:40:19;1.38;;;0.90;;
15990;SDS011;8100;50.994;4.538;2024-03-23T15:43:06;1.70;;;0.85;;
15990;SDS011;8100;50.994;4.538;2024-03-23T15:45:55;2.80;;;0.90;;
15990;SDS011;8100;50.994;4.538;2024-03-23T15:48:44;4.13;;;1.10;;
15990;SDS011;8100;50.994;4.538;2024-03-23T15:51:32;1.95;;;0.80;;
15990;SDS011;8100;50.994;4.538;2024-03-23T15:54:21;1.38;;;0.73;;
15990;SDS011;8100;50.994;4.538;2024-03-23T15:57:07;3.75;;;0.77;;
15990;SDS011;8100;50.994;4.538;2024-03-23T15:59:54;1.65;;;0.98;;
15990;SDS011;8100;50.994;4.538;2024-03-23T16:02:40;2.00;;;0.80;;
15990;SDS011;8100;50.994;4.538;2024-03-23T16:05:29;2.10;;;0.90;;
15990;SDS011;8100;50.994;4.538;2024-03-23T16:08:16;4.40;;;0.70;;
15990;SDS011;8100;50.994;4.538;2024-03-23T16:11:03;2.38;;;0.60;;
15990;SDS011;8100;50.994;4.538;2024-03-23T16:13:50;0.80;;;0.70;;
15990;SDS011;8100;50.994;4.538;2024-03-23T16:16:37;3.65;;;0.65;;
15990;SDS011;8100;50.994;4.538;2024-03-23T16:19:23;25.38;;;1.67;;
15990;SDS011;8100;50.994;4.538;2024-03-23T16:22:11;2.42;;;0.60;;
15990;SDS011;8100;50.994;4.538;2024-03-23T16:24:57;3.22;;;0.80;;
15990;SDS011;8100;50.994;4.538;2024-03-23T16:27:44;2.65;;;0.70;;
15990;SDS011;8100;50.994;4.538;2024-03-23T16:30:30;1.67;;;0.50;;
15990;SDS011;8100;50.994;4.538;2024-03-23T16:33:17;2.58;;;0.68;;
15990;SDS011;8100;50.994;4.538;2024-03-23T16:36:03;1.92;;;0.63;;
15990;SDS011;8100;50.994;4.538;2024-03-23T16:38:53;3.55;;;0.77;;
15990;SDS011;8100;50.994;4.538;2024-03-23T16:41:39;3.45;;;0.90;;
15990;SDS011;8100;50.994;4.538;2024-03-23T16:44:26;1.95;;;0.50;;
15990;SDS011;8100;50.994;4.538;2024-03-23T16:47:12;2.03;;;0.90;;
15990;SDS011;8100;50.994;4.538;2024-03-23T16:49:59;1.63;;;0.70;;
15990;SDS011;8100;50.994;4.538;2024-03-23T16:52:45;4.18;;;0.73;;
15990;SDS011;8100;50.994;4.538;2024-03-23T16:55:34;1.05;;;0.60;;
15990;SDS011;8100;50.994;4.538;2024-03-23T16:58:20;3.15;;;0.75;;
15990;SDS011;8100;50.994;4.538;2024-03-23T17:01:08;4.05;;;1.20;;
15990;SDS011;8100;50.994;4.538;2024-03-23T17:03:57;2.67;;;0.93;;
15990;SDS011;8100;50.994;4.538;2024-03-23T17:06:45;2.15;;;0.80;;
15990;SDS011;8100;50.994;4.538;2024-03-23T17:09:30;2.30;;;0.80;;
15990;SDS011;8100;50.994;4.538;2024-03-23T17:12:19;4.47;;;0.82;;
15990;SDS011;8100;50.994;4.538;2024-03-23T17:15:05;4.28;;;0.68;;
15990;SDS011;8100;50.994;4.538;2024-03-23T17:17:53;2.25;;;0.60;;
15990;SDS011;8100;50.994;4.538;2024-03-23T17:20:39;2.50;;;0.57;;
15990;SDS011;8100;50.994;4.538;2024-03-23T17:23:26;2.38;;;0.75;;
15990;SDS011;8100;50.994;4.538;2024-03-23T17:26:13;5.90;;;1.00;;
15990;SDS011;8100;50.994;4.538;2024-03-23T17:29:01;4.90;;;1.15;;
15990;SDS011;8100;50.994;4.538;2024-03-23T17:31:48;3.50;;;1.15;;
15990;SDS011;8100;50.994;4.538;2024-03-23T17:34:35;2.92;;;0.85;;
15990;SDS011;8100;50.994;4.538;2024-03-23T17:37:21;3.38;;;0.70;;
15990;SDS011;8100;50.994;4.538;2024-03-23T17:40:09;1.92;;;0.60;;
15990;SDS011;8100;50.994;4.538;2024-03-23T17:42:56;1.10;;;0.50;;
15990;SDS011;8100;50.994;4.538;2024-03-23T17:45:45;1.98;;;0.75;;
15990;SDS011;8100;50.994;4.538;2024-03-23T17:48:31;2.80;;;0.57;;
15990;SDS011;8100;50.994;4.538;2024-03-23T17:51:18;1.42;;;0.30;;
15990;SDS011;8100;50.994;4.538;2024-03-23T17:54:04;1.70;;;0.60;;
15990;SDS011;8100;50.994;4.538;2024-03-23T17:56:51;0.60;;;0.35;;
15990;SDS011;8100;50.994;4.538;2024-03-23T17:59:37;1.20;;;0.40;;
15990;SDS011;8100;50.994;4.538;2024-03-23T18:02:25;2.13;;;0.55;;